sensor_id;sensor_type;location;lat;lon;timestamp;temperature;humidity
46590;DHT22;32313;48.722;9.362;2023-07-31T00:01:28;11.90;99.90
46590;DHT22;32313;48.722;9.362;2023-07-31T00:03:54;11.90;99.90
46590;DHT22;32313;48.722;9.362;2023-07-31T00:06:19;11.80;99.90
46590;DHT22;32313;48.722;9.362;2023-07-31T00:08:45;11.70;99.90
46590;DHT22;32313;48.722;9.362;2023-07-31T00:11:11;11.70;99.90
46590;DHT22;32313;48.722;9.362;2023-07-31T00:13:36;11.70;99.90
46590;DHT22;32313;48.722;9.362;2023-07-31T00:16:02;11.60;99.90
46590;DHT22;32313;48.722;9.362;2023-07-31T00:18:28;11.60;99.90
46590;DHT22;32313;48.722;9.362;2023-07-31T00:20:53;11.60;99.90
46590;DHT22;32313;48.722;9.362;2023-07-31T00:23:19;11.60;99.90
46590;DHT22;32313;48.722;9.362;2023-07-31T00:25:44;11.60;99.90
46590;DHT22;32313;48.722;9.362;2023-07-31T00:28:10;11.60;99.90
46590;DHT22;32313;48.722;9.362;2023-07-31T00:30:36;11.50;99.90
46590;DHT22;32313;48.722;9.362;2023-07-31T00:33:01;11.50;99.90
46590;DHT22;32313;48.722;9.362;2023-07-31T00:35:27;11.50;99.90
46590;DHT22;32313;48.722;9.362;2023-07-31T00:37:53;11.40;99.90
46590;DHT22;32313;48.722;9.362;2023-07-31T00:40:18;11.30;99.90
46590;DHT22;32313;48.722;9.362;2023-07-31T00:42:44;11.20;99.90
46590;DHT22;32313;48.722;9.362;2023-07-31T00:45:11;11.20;99.90
46590;DHT22;32313;48.722;9.362;2023-07-31T00:47:37;11.10;99.90
46590;DHT22;32313;48.722;9.362;2023-07-31T00:50:03;11.10;99.90
46590;DHT22;32313;48.722;9.362;2023-07-31T00:52:29;11.10;99.90
46590;DHT22;32313;48.722;9.362;2023-07-31T00:54:55;11.10;99.90
46590;DHT22;32313;48.722;9.362;2023-07-31T00:57:21;11.10;99.90
46590;DHT22;32313;48.722;9.362;2023-07-31T00:59:47;11.10;99.90
46590;DHT22;32313;48.722;9.362;2023-07-31T01:02:14;11.10;99.90
46590;DHT22;32313;48.722;9.362;2023-07-31T01:04:41;11.10;99.90
46590;DHT22;32313;48.722;9.362;2023-07-31T01:07:16;11.00;99.90
46590;DHT22;32313;48.722;9.362;2023-07-31T01:12:45;10.90;99.90
46590;DHT22;32313;48.722;9.362;2023-07-31T01:15:13;10.90;99.90
46590;DHT22;32313;48.722;9.362;2023-07-31T01:17:42;10.90;99.90
46590;DHT22;32313;48.722;9.362;2023-07-31T01:20:16;10.80;99.90
46590;DHT22;32313;48.722;9.362;2023-07-31T01:23:26;10.90;99.90
46590;DHT22;32313;48.722;9.362;2023-07-31T01:26:05;10.90;99.90
46590;DHT22;32313;48.722;9.362;2023-07-31T01:31:10;10.90;99.90
46590;DHT22;32313;48.722;9.362;2023-07-31T01:33:38;10.80;99.90
46590;DHT22;32313;48.722;9.362;2023-07-31T01:36:04;10.80;99.90
46590;DHT22;32313;48.722;9.362;2023-07-31T01:38:30;10.80;99.90
46590;DHT22;32313;48.722;9.362;2023-07-31T01:40:55;10.70;99.90
46590;DHT22;32313;48.722;9.362;2023-07-31T01:43:24;10.70;99.90
46590;DHT22;32313;48.722;9.362;2023-07-31T01:45:49;10.70;99.90
46590;DHT22;32313;48.722;9.362;2023-07-31T01:48:29;10.70;99.90
46590;DHT22;32313;48.722;9.362;2023-07-31T01:51:01;10.70;99.90
46590;DHT22;32313;48.722;9.362;2023-07-31T01:53:27;10.60;99.90
46590;DHT22;32313;48.722;9.362;2023-07-31T01:55:53;10.60;99.90
46590;DHT22;32313;48.722;9.362;2023-07-31T01:58:18;10.50;99.90
46590;DHT22;32313;48.722;9.362;2023-07-31T02:00:44;10.50;99.90
46590;DHT22;32313;48.722;9.362;2023-07-31T02:03:10;10.50;99.90
46590;DHT22;32313;48.722;9.362;2023-07-31T02:05:35;10.40;99.90
46590;DHT22;32313;48.722;9.362;2023-07-31T02:08:01;10.40;99.90
46590;DHT22;32313;48.722;9.362;2023-07-31T02:10:27;10.50;99.90
46590;DHT22;32313;48.722;9.362;2023-07-31T02:12:52;10.50;99.90
46590;DHT22;32313;48.722;9.362;2023-07-31T02:15:18;10.50;99.90
46590;DHT22;32313;48.722;9.362;2023-07-31T02:17:44;10.50;99.90
46590;DHT22;32313;48.722;9.362;2023-07-31T02:20:10;10.50;99.90
46590;DHT22;32313;48.722;9.362;2023-07-31T02:22:35;10.50;99.90
46590;DHT22;32313;48.722;9.362;2023-07-31T02:25:02;10.60;99.90
46590;DHT22;32313;48.722;9.362;2023-07-31T02:27:27;10.60;99.90
46590;DHT22;32313;48.722;9.362;2023-07-31T02:29:53;10.60;99.90
46590;DHT22;32313;48.722;9.362;2023-07-31T02:32:20;10.50;99.90
46590;DHT22;32313;48.722;9.362;2023-07-31T02:34:45;10.50;99.90
46590;DHT22;32313;48.722;9.362;2023-07-31T02:37:11;10.40;99.90
46590;DHT22;32313;48.722;9.362;2023-07-31T02:39:37;10.40;99.90
46590;DHT22;32313;48.722;9.362;2023-07-31T02:42:03;10.40;99.90
46590;DHT22;32313;48.722;9.362;2023-07-31T02:44:28;10.40;99.90
46590;DHT22;32313;48.722;9.362;2023-07-31T02:46:54;10.40;99.90
46590;DHT22;32313;48.722;9.362;2023-07-31T02:49:20;10.40;99.90
46590;DHT22;32313;48.722;9.362;2023-07-31T02:51:46;10.40;99.90
46590;DHT22;32313;48.722;9.362;2023-07-31T02:54:11;10.40;99.90
46590;DHT22;32313;48.722;9.362;2023-07-31T02:56:37;10.50;99.90
46590;DHT22;32313;48.722;9.362;2023-07-31T02:59:03;10.50;99.90
46590;DHT22;32313;48.722;9.362;2023-07-31T03:01:28;10.40;99.90
46590;DHT22;32313;48.722;9.362;2023-07-31T03:03:54;10.40;99.90
46590;DHT22;32313;48.722;9.362;2023-07-31T03:06:20;10.40;99.90
46590;DHT22;32313;48.722;9.362;2023-07-31T03:08:45;10.30;99.90
46590;DHT22;32313;48.722;9.362;2023-07-31T03:11:11;10.30;99.90
46590;DHT22;32313;48.722;9.362;2023-07-31T03:13:37;10.30;99.90
46590;DHT22;32313;48.722;9.362;2023-07-31T03:16:03;10.20;99.90
46590;DHT22;32313;48.722;9.362;2023-07-31T03:18:28;10.20;99.90
46590;DHT22;32313;48.722;9.362;2023-07-31T03:20:54;10.20;99.90
46590;DHT22;32313;48.722;9.362;2023-07-31T03:23:20;10.20;99.90
46590;DHT22;32313;48.722;9.362;2023-07-31T03:25:56;10.10;99.90
46590;DHT22;32313;48.722;9.362;2023-07-31T03:28:22;10.20;99.90
46590;DHT22;32313;48.722;9.362;2023-07-31T03:30:48;10.20;99.90
46590;DHT22;32313;48.722;9.362;2023-07-31T03:33:14;10.20;99.90
46590;DHT22;32313;48.722;9.362;2023-07-31T03:35:40;10.20;99.90
46590;DHT22;32313;48.722;9.362;2023-07-31T03:38:06;10.30;99.90
46590;DHT22;32313;48.722;9.362;2023-07-31T03:40:31;10.30;99.90
46590;DHT22;32313;48.722;9.362;2023-07-31T03:42:59;10.40;99.90
46590;DHT22;32313;48.722;9.362;2023-07-31T03:45:24;10.40;99.90
46590;DHT22;32313;48.722;9.362;2023-07-31T03:47:50;10.40;99.90
46590;DHT22;32313;48.722;9.362;2023-07-31T03:50:16;10.30;99.90
46590;DHT22;32313;48.722;9.362;2023-07-31T03:52:42;10.30;99.90
46590;DHT22;32313;48.722;9.362;2023-07-31T03:55:08;10.30;99.90
46590;DHT22;32313;48.722;9.362;2023-07-31T03:57:33;10.20;99.90
46590;DHT22;32313;48.722;9.362;2023-07-31T03:59:59;10.20;99.90
46590;DHT22;32313;48.722;9.362;2023-07-31T04:02:25;10.20;99.90
46590;DHT22;32313;48.722;9.362;2023-07-31T04:04:50;10.20;99.90
46590;DHT22;32313;48.722;9.362;2023-07-31T04:07:16;10.20;99.90
46590;DHT22;32313;48.722;9.362;2023-07-31T04:09:42;10.20;99.90
46590;DHT22;32313;48.722;9.362;2023-07-31T04:12:07;10.30;99.90
46590;DHT22;32313;48.722;9.362;2023-07-31T04:14:33;10.30;99.90
46590;DHT22;32313;48.722;9.362;2023-07-31T04:16:59;10.30;99.90
46590;DHT22;32313;48.722;9.362;2023-07-31T04:19:24;10.40;99.90
46590;DHT22;32313;48.722;9.362;2023-07-31T04:21:50;10.50;99.90
46590;DHT22;32313;48.722;9.362;2023-07-31T04:24:16;10.60;99.90
46590;DHT22;32313;48.722;9.362;2023-07-31T04:26:47;10.70;99.90
46590;DHT22;32313;48.722;9.362;2023-07-31T04:29:13;10.80;99.90
46590;DHT22;32313;48.722;9.362;2023-07-31T04:31:38;10.90;99.90
46590;DHT22;32313;48.722;9.362;2023-07-31T04:34:04;11.00;99.90
46590;DHT22;32313;48.722;9.362;2023-07-31T04:36:30;11.10;99.90
46590;DHT22;32313;48.722;9.362;2023-07-31T04:38:55;11.20;99.90
46590;DHT22;32313;48.722;9.362;2023-07-31T04:41:21;11.30;99.90
46590;DHT22;32313;48.722;9.362;2023-07-31T04:43:47;11.30;99.90
46590;DHT22;32313;48.722;9.362;2023-07-31T04:46:12;11.40;99.90
46590;DHT22;32313;48.722;9.362;2023-07-31T04:48:38;11.50;99.90
46590;DHT22;32313;48.722;9.362;2023-07-31T04:51:04;11.50;99.90
46590;DHT22;32313;48.722;9.362;2023-07-31T04:53:29;11.60;99.90
46590;DHT22;32313;48.722;9.362;2023-07-31T04:55:55;11.70;99.90
46590;DHT22;32313;48.722;9.362;2023-07-31T04:58:20;11.70;99.90
46590;DHT22;32313;48.722;9.362;2023-07-31T05:00:46;11.80;99.90
46590;DHT22;32313;48.722;9.362;2023-07-31T05:03:12;11.80;99.90
46590;DHT22;32313;48.722;9.362;2023-07-31T05:05:37;11.90;99.90
46590;DHT22;32313;48.722;9.362;2023-07-31T05:08:03;12.00;99.90
46590;DHT22;32313;48.722;9.362;2023-07-31T05:10:29;12.10;99.90
46590;DHT22;32313;48.722;9.362;2023-07-31T05:12:55;12.10;99.90
46590;DHT22;32313;48.722;9.362;2023-07-31T05:15:20;12.20;99.90
46590;DHT22;32313;48.722;9.362;2023-07-31T05:17:46;12.20;99.90
46590;DHT22;32313;48.722;9.362;2023-07-31T05:20:12;12.20;99.90
46590;DHT22;32313;48.722;9.362;2023-07-31T05:22:38;12.30;99.90
46590;DHT22;32313;48.722;9.362;2023-07-31T05:25:04;12.30;99.90
46590;DHT22;32313;48.722;9.362;2023-07-31T05:27:30;12.40;99.90
46590;DHT22;32313;48.722;9.362;2023-07-31T05:29:55;12.40;99.90
46590;DHT22;32313;48.722;9.362;2023-07-31T05:32:21;12.50;99.90
46590;DHT22;32313;48.722;9.362;2023-07-31T05:34:46;12.50;99.90
46590;DHT22;32313;48.722;9.362;2023-07-31T05:37:14;12.60;99.90
46590;DHT22;32313;48.722;9.362;2023-07-31T05:39:39;12.60;99.90
46590;DHT22;32313;48.722;9.362;2023-07-31T05:42:05;12.70;99.90
46590;DHT22;32313;48.722;9.362;2023-07-31T05:44:31;12.80;99.90
46590;DHT22;32313;48.722;9.362;2023-07-31T05:46:56;12.80;99.90
46590;DHT22;32313;48.722;9.362;2023-07-31T05:49:22;12.90;99.90
46590;DHT22;32313;48.722;9.362;2023-07-31T05:51:48;13.00;99.90
46590;DHT22;32313;48.722;9.362;2023-07-31T05:54:13;13.20;99.90
46590;DHT22;32313;48.722;9.362;2023-07-31T05:56:39;13.30;99.90
46590;DHT22;32313;48.722;9.362;2023-07-31T05:59:04;13.50;99.90
46590;DHT22;32313;48.722;9.362;2023-07-31T06:01:30;13.80;99.90
46590;DHT22;32313;48.722;9.362;2023-07-31T06:03:56;14.00;99.90
46590;DHT22;32313;48.722;9.362;2023-07-31T06:06:21;14.30;99.90
46590;DHT22;32313;48.722;9.362;2023-07-31T06:08:47;14.60;99.90
46590;DHT22;32313;48.722;9.362;2023-07-31T06:11:13;14.80;99.90
46590;DHT22;32313;48.722;9.362;2023-07-31T06:13:38;15.00;99.90
46590;DHT22;32313;48.722;9.362;2023-07-31T06:16:04;15.10;99.90
46590;DHT22;32313;48.722;9.362;2023-07-31T06:18:34;15.20;99.90
46590;DHT22;32313;48.722;9.362;2023-07-31T06:21:00;15.20;99.90
46590;DHT22;32313;48.722;9.362;2023-07-31T06:23:26;15.30;99.90
46590;DHT22;32313;48.722;9.362;2023-07-31T06:25:51;15.50;99.90
46590;DHT22;32313;48.722;9.362;2023-07-31T06:28:17;15.70;99.90
46590;DHT22;32313;48.722;9.362;2023-07-31T06:30:42;16.00;99.90
46590;DHT22;32313;48.722;9.362;2023-07-31T06:33:08;16.10;99.90
46590;DHT22;32313;48.722;9.362;2023-07-31T06:35:34;16.20;99.90
46590;DHT22;32313;48.722;9.362;2023-07-31T06:38:00;16.20;99.90
46590;DHT22;32313;48.722;9.362;2023-07-31T06:40:27;16.30;99.90
46590;DHT22;32313;48.722;9.362;2023-07-31T06:42:52;16.50;99.90
46590;DHT22;32313;48.722;9.362;2023-07-31T06:45:18;16.70;99.90
46590;DHT22;32313;48.722;9.362;2023-07-31T06:47:43;16.90;99.90
46590;DHT22;32313;48.722;9.362;2023-07-31T06:50:09;17.10;99.90
46590;DHT22;32313;48.722;9.362;2023-07-31T06:52:35;17.30;99.90
46590;DHT22;32313;48.722;9.362;2023-07-31T06:55:18;17.70;99.90
46590;DHT22;32313;48.722;9.362;2023-07-31T06:57:45;18.00;99.90
46590;DHT22;32313;48.722;9.362;2023-07-31T07:00:11;18.10;99.90
46590;DHT22;32313;48.722;9.362;2023-07-31T07:02:36;18.20;99.90
46590;DHT22;32313;48.722;9.362;2023-07-31T07:05:02;18.40;99.90
46590;DHT22;32313;48.722;9.362;2023-07-31T07:07:28;18.60;99.90
46590;DHT22;32313;48.722;9.362;2023-07-31T07:09:53;19.00;99.90
46590;DHT22;32313;48.722;9.362;2023-07-31T07:12:19;19.60;99.90
46590;DHT22;32313;48.722;9.362;2023-07-31T07:14:45;20.10;99.90
46590;DHT22;32313;48.722;9.362;2023-07-31T07:17:13;20.50;99.90
46590;DHT22;32313;48.722;9.362;2023-07-31T07:19:40;20.80;99.90
46590;DHT22;32313;48.722;9.362;2023-07-31T07:22:06;20.80;99.90
46590;DHT22;32313;48.722;9.362;2023-07-31T07:24:32;20.70;99.90
46590;DHT22;32313;48.722;9.362;2023-07-31T07:26:58;20.70;99.90
46590;DHT22;32313;48.722;9.362;2023-07-31T07:29:23;20.90;99.90
46590;DHT22;32313;48.722;9.362;2023-07-31T07:31:49;20.90;99.90
46590;DHT22;32313;48.722;9.362;2023-07-31T07:34:15;21.20;99.90
46590;DHT22;32313;48.722;9.362;2023-07-31T07:36:40;21.60;99.90
46590;DHT22;32313;48.722;9.362;2023-07-31T07:39:06;22.00;99.90
46590;DHT22;32313;48.722;9.362;2023-07-31T07:41:32;22.50;99.90
46590;DHT22;32313;48.722;9.362;2023-07-31T07:43:57;21.90;99.90
46590;DHT22;32313;48.722;9.362;2023-07-31T07:46:23;21.50;99.90
46590;DHT22;32313;48.722;9.362;2023-07-31T07:48:49;21.10;99.90
46590;DHT22;32313;48.722;9.362;2023-07-31T07:51:14;20.90;99.90
46590;DHT22;32313;48.722;9.362;2023-07-31T07:53:40;20.80;99.90
46590;DHT22;32313;48.722;9.362;2023-07-31T07:56:05;20.80;99.90
46590;DHT22;32313;48.722;9.362;2023-07-31T07:58:31;20.90;99.90
46590;DHT22;32313;48.722;9.362;2023-07-31T08:00:57;21.00;99.90
46590;DHT22;32313;48.722;9.362;2023-07-31T08:03:22;21.00;99.90
46590;DHT22;32313;48.722;9.362;2023-07-31T08:05:48;21.00;99.90
46590;DHT22;32313;48.722;9.362;2023-07-31T08:08:15;21.20;99.90
46590;DHT22;32313;48.722;9.362;2023-07-31T08:10:42;21.40;99.90
46590;DHT22;32313;48.722;9.362;2023-07-31T08:13:07;21.60;99.90
46590;DHT22;32313;48.722;9.362;2023-07-31T08:15:33;22.20;99.90
46590;DHT22;32313;48.722;9.362;2023-07-31T08:17:59;22.30;99.90
46590;DHT22;32313;48.722;9.362;2023-07-31T08:20:26;21.80;99.90
46590;DHT22;32313;48.722;9.362;2023-07-31T08:22:52;21.90;99.90
46590;DHT22;32313;48.722;9.362;2023-07-31T08:25:18;22.30;99.90
46590;DHT22;32313;48.722;9.362;2023-07-31T08:27:44;22.50;99.90
46590;DHT22;32313;48.722;9.362;2023-07-31T08:30:11;22.90;99.90
46590;DHT22;32313;48.722;9.362;2023-07-31T08:32:37;23.20;99.90
46590;DHT22;32313;48.722;9.362;2023-07-31T08:35:03;23.50;99.90
46590;DHT22;32313;48.722;9.362;2023-07-31T08:37:29;23.30;99.90
46590;DHT22;32313;48.722;9.362;2023-07-31T08:39:55;23.10;99.90
46590;DHT22;32313;48.722;9.362;2023-07-31T08:42:21;23.50;99.90
46590;DHT22;32313;48.722;9.362;2023-07-31T08:44:47;24.00;99.90
46590;DHT22;32313;48.722;9.362;2023-07-31T08:51:01;24.00;99.90
46590;DHT22;32313;48.722;9.362;2023-07-31T08:53:27;23.70;99.90
46590;DHT22;32313;48.722;9.362;2023-07-31T08:55:53;24.10;99.90
46590;DHT22;32313;48.722;9.362;2023-07-31T08:58:20;24.40;99.90
46590;DHT22;32313;48.722;9.362;2023-07-31T09:00:46;24.90;99.90
46590;DHT22;32313;48.722;9.362;2023-07-31T09:03:17;25.20;99.90
46590;DHT22;32313;48.722;9.362;2023-07-31T09:05:46;25.00;99.90
46590;DHT22;32313;48.722;9.362;2023-07-31T09:08:13;24.70;99.90
46590;DHT22;32313;48.722;9.362;2023-07-31T09:10:44;24.70;99.90
46590;DHT22;32313;48.722;9.362;2023-07-31T09:13:11;24.50;99.90
46590;DHT22;32313;48.722;9.362;2023-07-31T09:15:37;25.00;99.90
46590;DHT22;32313;48.722;9.362;2023-07-31T09:18:05;24.70;99.90
46590;DHT22;32313;48.722;9.362;2023-07-31T09:20:31;24.30;99.90
46590;DHT22;32313;48.722;9.362;2023-07-31T09:23:11;23.70;99.90
46590;DHT22;32313;48.722;9.362;2023-07-31T09:25:38;24.10;99.90
46590;DHT22;32313;48.722;9.362;2023-07-31T09:28:09;24.80;99.90
46590;DHT22;32313;48.722;9.362;2023-07-31T09:31:04;25.10;99.10
46590;DHT22;32313;48.722;9.362;2023-07-31T09:33:30;25.70;97.90
46590;DHT22;32313;48.722;9.362;2023-07-31T09:35:58;25.80;96.30
46590;DHT22;32313;48.722;9.362;2023-07-31T09:38:25;25.50;97.40
46590;DHT22;32313;48.722;9.362;2023-07-31T09:40:51;25.20;96.00
46590;DHT22;32313;48.722;9.362;2023-07-31T09:43:19;24.70;96.50
46590;DHT22;32313;48.722;9.362;2023-07-31T09:45:45;24.10;97.30
46590;DHT22;32313;48.722;9.362;2023-07-31T09:48:13;23.80;97.10
46590;DHT22;32313;48.722;9.362;2023-07-31T09:50:41;24.00;98.70
46590;DHT22;32313;48.722;9.362;2023-07-31T09:53:08;24.60;97.80
46590;DHT22;32313;48.722;9.362;2023-07-31T09:55:34;24.10;98.00
46590;DHT22;32313;48.722;9.362;2023-07-31T09:58:07;23.80;98.40
46590;DHT22;32313;48.722;9.362;2023-07-31T10:00:34;23.70;98.00
46590;DHT22;32313;48.722;9.362;2023-07-31T10:03:02;24.00;98.80
46590;DHT22;32313;48.722;9.362;2023-07-31T10:05:34;24.00;98.00
46590;DHT22;32313;48.722;9.362;2023-07-31T10:08:01;24.50;98.70
46590;DHT22;32313;48.722;9.362;2023-07-31T10:10:28;25.30;98.50
46590;DHT22;32313;48.722;9.362;2023-07-31T10:12:55;25.60;97.80
46590;DHT22;32313;48.722;9.362;2023-07-31T10:15:22;25.60;97.70
46590;DHT22;32313;48.722;9.362;2023-07-31T10:17:48;25.70;95.10
46590;DHT22;32313;48.722;9.362;2023-07-31T10:20:16;25.50;96.40
46590;DHT22;32313;48.722;9.362;2023-07-31T10:22:43;25.90;95.80
46590;DHT22;32313;48.722;9.362;2023-07-31T10:25:09;25.50;94.50
46590;DHT22;32313;48.722;9.362;2023-07-31T10:27:36;24.60;95.90
46590;DHT22;32313;48.722;9.362;2023-07-31T10:30:04;24.30;96.90
46590;DHT22;32313;48.722;9.362;2023-07-31T10:32:31;24.10;96.40
46590;DHT22;32313;48.722;9.362;2023-07-31T10:34:57;24.40;97.20
46590;DHT22;32313;48.722;9.362;2023-07-31T10:37:28;25.50;96.70
46590;DHT22;32313;48.722;9.362;2023-07-31T10:40:06;25.90;95.40
46590;DHT22;32313;48.722;9.362;2023-07-31T10:45:13;25.30;95.20
46590;DHT22;32313;48.722;9.362;2023-07-31T10:47:44;25.80;94.20
46590;DHT22;32313;48.722;9.362;2023-07-31T10:50:20;25.30;94.80
46590;DHT22;32313;48.722;9.362;2023-07-31T10:52:51;24.80;95.30
46590;DHT22;32313;48.722;9.362;2023-07-31T10:57:58;24.80;96.20
46590;DHT22;32313;48.722;9.362;2023-07-31T11:00:28;25.50;95.40
46590;DHT22;32313;48.722;9.362;2023-07-31T11:03:04;26.00;95.20
46590;DHT22;32313;48.722;9.362;2023-07-31T11:08:25;25.00;93.90
46590;DHT22;32313;48.722;9.362;2023-07-31T11:13:39;24.30;93.60
46590;DHT22;32313;48.722;9.362;2023-07-31T11:16:05;24.20;94.30
46590;DHT22;32313;48.722;9.362;2023-07-31T11:18:30;24.30;94.90
46590;DHT22;32313;48.722;9.362;2023-07-31T11:20:56;24.50;94.70
46590;DHT22;32313;48.722;9.362;2023-07-31T11:23:22;24.60;94.50
46590;DHT22;32313;48.722;9.362;2023-07-31T11:25:49;24.70;94.60
46590;DHT22;32313;48.722;9.362;2023-07-31T11:28:17;24.60;94.50
46590;DHT22;32313;48.722;9.362;2023-07-31T11:30:44;24.50;94.00
46590;DHT22;32313;48.722;9.362;2023-07-31T11:33:11;24.30;94.20
46590;DHT22;32313;48.722;9.362;2023-07-31T11:35:42;24.20;94.90
46590;DHT22;32313;48.722;9.362;2023-07-31T11:38:32;24.10;94.90
46590;DHT22;32313;48.722;9.362;2023-07-31T11:41:02;24.10;95.00
46590;DHT22;32313;48.722;9.362;2023-07-31T11:43:28;24.20;96.20
46590;DHT22;32313;48.722;9.362;2023-07-31T11:45:56;24.40;96.20
46590;DHT22;32313;48.722;9.362;2023-07-31T11:48:26;24.40;96.00
46590;DHT22;32313;48.722;9.362;2023-07-31T11:50:54;24.20;94.50
46590;DHT22;32313;48.722;9.362;2023-07-31T11:53:51;23.80;94.80
46590;DHT22;32313;48.722;9.362;2023-07-31T11:56:19;23.60;95.40
46590;DHT22;32313;48.722;9.362;2023-07-31T11:58:46;23.50;96.00
46590;DHT22;32313;48.722;9.362;2023-07-31T12:01:14;23.60;95.70
46590;DHT22;32313;48.722;9.362;2023-07-31T12:03:40;23.50;95.90
46590;DHT22;32313;48.722;9.362;2023-07-31T12:06:08;23.40;95.70
46590;DHT22;32313;48.722;9.362;2023-07-31T12:08:33;23.20;95.40
46590;DHT22;32313;48.722;9.362;2023-07-31T12:11:07;23.00;95.90
46590;DHT22;32313;48.722;9.362;2023-07-31T12:13:34;22.90;96.90
46590;DHT22;32313;48.722;9.362;2023-07-31T12:16:02;23.00;96.70
46590;DHT22;32313;48.722;9.362;2023-07-31T12:18:33;23.00;96.80
46590;DHT22;32313;48.722;9.362;2023-07-31T12:21:01;22.90;97.40
46590;DHT22;32313;48.722;9.362;2023-07-31T12:23:28;22.90;97.30
46590;DHT22;32313;48.722;9.362;2023-07-31T12:28:41;22.60;97.90
46590;DHT22;32313;48.722;9.362;2023-07-31T12:31:09;22.50;97.80
46590;DHT22;32313;48.722;9.362;2023-07-31T12:33:36;22.60;97.90
46590;DHT22;32313;48.722;9.362;2023-07-31T12:36:08;22.60;97.90
46590;DHT22;32313;48.722;9.362;2023-07-31T12:38:34;22.70;98.10
46590;DHT22;32313;48.722;9.362;2023-07-31T12:41:00;22.70;98.00
46590;DHT22;32313;48.722;9.362;2023-07-31T12:43:25;22.70;98.60
46590;DHT22;32313;48.722;9.362;2023-07-31T12:45:51;22.70;98.30
46590;DHT22;32313;48.722;9.362;2023-07-31T12:48:17;22.70;98.60
46590;DHT22;32313;48.722;9.362;2023-07-31T12:50:43;22.60;98.50
46590;DHT22;32313;48.722;9.362;2023-07-31T12:53:08;22.60;98.30
46590;DHT22;32313;48.722;9.362;2023-07-31T12:55:34;22.50;98.80
46590;DHT22;32313;48.722;9.362;2023-07-31T12:58:02;22.50;98.90
46590;DHT22;32313;48.722;9.362;2023-07-31T13:00:28;22.50;98.30
46590;DHT22;32313;48.722;9.362;2023-07-31T13:02:53;22.40;98.40
46590;DHT22;32313;48.722;9.362;2023-07-31T13:05:20;22.30;98.60
46590;DHT22;32313;48.722;9.362;2023-07-31T13:07:47;22.30;99.30
46590;DHT22;32313;48.722;9.362;2023-07-31T13:10:13;22.40;99.00
46590;DHT22;32313;48.722;9.362;2023-07-31T13:12:38;22.40;99.60
46590;DHT22;32313;48.722;9.362;2023-07-31T13:15:05;22.30;99.60
46590;DHT22;32313;48.722;9.362;2023-07-31T13:17:31;22.30;99.40
46590;DHT22;32313;48.722;9.362;2023-07-31T13:19:57;22.30;99.70
46590;DHT22;32313;48.722;9.362;2023-07-31T13:22:23;22.30;99.50
46590;DHT22;32313;48.722;9.362;2023-07-31T13:24:49;22.30;99.60
46590;DHT22;32313;48.722;9.362;2023-07-31T13:27:15;22.20;99.90
46590;DHT22;32313;48.722;9.362;2023-07-31T13:29:50;22.20;99.70
46590;DHT22;32313;48.722;9.362;2023-07-31T13:32:17;22.20;99.90
46590;DHT22;32313;48.722;9.362;2023-07-31T13:34:43;22.20;99.80
46590;DHT22;32313;48.722;9.362;2023-07-31T13:37:09;22.20;99.50
46590;DHT22;32313;48.722;9.362;2023-07-31T13:39:35;22.20;99.90
46590;DHT22;32313;48.722;9.362;2023-07-31T13:42:02;22.20;99.90
46590;DHT22;32313;48.722;9.362;2023-07-31T13:44:28;22.30;99.90
46590;DHT22;32313;48.722;9.362;2023-07-31T13:46:54;22.30;99.90
46590;DHT22;32313;48.722;9.362;2023-07-31T13:49:19;22.40;99.90
46590;DHT22;32313;48.722;9.362;2023-07-31T13:51:45;22.40;99.90
46590;DHT22;32313;48.722;9.362;2023-07-31T13:54:11;22.50;99.90
46590;DHT22;32313;48.722;9.362;2023-07-31T13:56:37;22.50;99.90
46590;DHT22;32313;48.722;9.362;2023-07-31T13:59:04;22.30;99.50
46590;DHT22;32313;48.722;9.362;2023-07-31T14:01:29;22.40;99.90
46590;DHT22;32313;48.722;9.362;2023-07-31T14:03:55;22.30;99.90
46590;DHT22;32313;48.722;9.362;2023-07-31T14:06:21;22.40;99.90
46590;DHT22;32313;48.722;9.362;2023-07-31T14:08:46;22.50;99.90
46590;DHT22;32313;48.722;9.362;2023-07-31T14:11:12;22.60;99.90
46590;DHT22;32313;48.722;9.362;2023-07-31T14:13:38;22.90;99.80
46590;DHT22;32313;48.722;9.362;2023-07-31T14:16:04;23.20;99.50
46590;DHT22;32313;48.722;9.362;2023-07-31T14:18:29;23.40;99.30
46590;DHT22;32313;48.722;9.362;2023-07-31T14:20:55;23.70;99.60
46590;DHT22;32313;48.722;9.362;2023-07-31T14:23:21;23.90;99.60
46590;DHT22;32313;48.722;9.362;2023-07-31T14:25:47;24.00;99.30
46590;DHT22;32313;48.722;9.362;2023-07-31T14:28:13;24.10;99.50
46590;DHT22;32313;48.722;9.362;2023-07-31T14:30:39;24.20;99.40
46590;DHT22;32313;48.722;9.362;2023-07-31T14:33:04;24.30;99.40
46590;DHT22;32313;48.722;9.362;2023-07-31T14:35:30;24.30;99.80
46590;DHT22;32313;48.722;9.362;2023-07-31T14:37:56;24.40;99.40
46590;DHT22;32313;48.722;9.362;2023-07-31T14:40:21;24.30;98.50
46590;DHT22;32313;48.722;9.362;2023-07-31T14:42:47;24.30;99.50
46590;DHT22;32313;48.722;9.362;2023-07-31T14:45:13;24.30;99.90
46590;DHT22;32313;48.722;9.362;2023-07-31T14:47:38;24.20;99.90
46590;DHT22;32313;48.722;9.362;2023-07-31T14:50:05;24.00;99.90
46590;DHT22;32313;48.722;9.362;2023-07-31T14:52:31;23.90;99.70
46590;DHT22;32313;48.722;9.362;2023-07-31T14:54:56;23.80;99.10
46590;DHT22;32313;48.722;9.362;2023-07-31T14:57:22;23.70;98.80
46590;DHT22;32313;48.722;9.362;2023-07-31T14:59:48;23.80;99.50
46590;DHT22;32313;48.722;9.362;2023-07-31T15:02:15;23.90;99.40
46590;DHT22;32313;48.722;9.362;2023-07-31T15:04:41;23.90;99.10
46590;DHT22;32313;48.722;9.362;2023-07-31T15:07:07;23.90;99.00
46590;DHT22;32313;48.722;9.362;2023-07-31T15:09:32;24.00;98.90
46590;DHT22;32313;48.722;9.362;2023-07-31T15:11:58;24.00;99.50
46590;DHT22;32313;48.722;9.362;2023-07-31T15:14:25;24.00;98.70
46590;DHT22;32313;48.722;9.362;2023-07-31T15:16:51;24.00;98.60
46590;DHT22;32313;48.722;9.362;2023-07-31T15:19:17;24.00;99.00
46590;DHT22;32313;48.722;9.362;2023-07-31T15:21:42;23.90;98.80
46590;DHT22;32313;48.722;9.362;2023-07-31T15:24:08;23.80;99.30
46590;DHT22;32313;48.722;9.362;2023-07-31T15:26:34;23.80;99.90
46590;DHT22;32313;48.722;9.362;2023-07-31T15:29:06;24.00;99.90
46590;DHT22;32313;48.722;9.362;2023-07-31T15:31:38;24.30;97.70
46590;DHT22;32313;48.722;9.362;2023-07-31T15:34:04;24.80;98.10
46590;DHT22;32313;48.722;9.362;2023-07-31T15:36:30;25.30;97.40
46590;DHT22;32313;48.722;9.362;2023-07-31T15:38:56;25.40;96.70
46590;DHT22;32313;48.722;9.362;2023-07-31T15:41:22;25.50;95.90
46590;DHT22;32313;48.722;9.362;2023-07-31T15:43:49;25.40;95.80
46590;DHT22;32313;48.722;9.362;2023-07-31T15:46:15;25.00;96.50
46590;DHT22;32313;48.722;9.362;2023-07-31T15:48:40;25.00;96.40
46590;DHT22;32313;48.722;9.362;2023-07-31T15:51:07;24.80;96.70